D/T METAR WX W/SPE G/SPE TEMP DEWP FEEL
20/09/20 11:00 EIWF 201000Z 04009KT 010V070 CAVOK 16/12 Q1021 10.4mph 16°C 12°C 18.3°C
20/09/20 10:30 EIWF 200930Z 05008KT 010V080 CAVOK 14/11 Q1021 9.2mph 14°C 11°C 15.8°C
20/09/20 10:00 EIWF 200900Z 02008KT 340V060 CAVOK 14/12 Q1021 9.2mph 14°C 12°C 16.3°C
20/09/20 09:30 EIWF 200830Z 35006KT 320V020 CAVOK 11/11 Q1021 6.9mph 11°C 11°C 12.8°C
20/09/20 09:00 EIWF 200800Z 34006KT CAVOK 10/10 Q1021 6.9mph 10°C 10°C 11.3°C
20/09/20 08:30 EIWF 200730Z 34008KT 8000 NSC 09/08 Q1021 9.2mph 9°C 8°C 9.4°C
20/09/20 08:00 EIWF 200700Z 35008KT 310V010 8000 NSC 09/08 Q1021 9.2mph 9°C 8°C 9.4°C
20/09/20 04:00 EIWF 200300Z 35007KT CAVOK 09/08 Q1020 8.1mph 9°C 8°C 9.4°C
19/09/20 20:30 EIWF 191930Z 02008KT CAVOK 13/10 Q1020 9.2mph 13°C 10°C 14.3°C
19/09/20 20:00 EIWF 191900Z 02006KT CAVOK 13/10 Q1020 6.9mph 13°C 10°C 14.3°C
19/09/20 19:30 EIWF 191830Z 03008KT CAVOK 14/10 Q1020 9.2mph 14°C 10°C 15.3°C
19/09/20 19:00 EIWF 191800Z 04008KT 010V080 CAVOK 14/10 Q1019 9.2mph 14°C 10°C 15.3°C
19/09/20 18:30 EIWF 191730Z 04009KT CAVOK 15/11 Q1019 10.4mph 15°C 11°C 16.8°C
19/09/20 18:00 EIWF 191700Z 05010KT 020V080 CAVOK 16/11 Q1019 11.5mph 16°C 11°C 17.8°C
19/09/20 17:30 EIWF 191630Z 05010KT 020V080 CAVOK 16/11 Q1019 11.5mph 16°C 11°C 17.8°C
19/09/20 17:00 EIWF 191600Z 05009KT 020V090 CAVOK 17/12 Q1019 10.4mph 17°C 12°C 19.3°C
19/09/20 16:30 EIWF 191530Z 05009KT 020V090 CAVOK 18/12 Q1019 10.4mph 18°C 12°C 20.3°C
19/09/20 16:00 EIWF 191500Z 05011KT 020V080 CAVOK 17/11 Q1019 12.7mph 17°C 11°C 18.8°C
19/09/20 15:30 EIWF 191430Z 04010KT 010V090 CAVOK 18/12 Q1019 11.5mph 18°C 12°C 20.3°C
19/09/20 15:00 EIWF 191400Z 05009KT 030V090 CAVOK 18/11 Q1019 10.4mph 18°C 11°C 19.8°C
19/09/20 14:30 EIWF 191330Z 05010KT 010V080 9999 FEW023 17/11 Q1019 11.5mph 17°C 11°C 18.8°C
19/09/20 14:00 EIWF 191300Z 04009KT 360V100 9999 FEW023 18/12 Q1019 10.4mph 18°C 12°C 20.3°C
19/09/20 13:30 EIWF 191230Z 05010KT 360V090 9999 FEW020 18/12 Q1020 11.5mph 18°C 12°C 20.3°C
19/09/20 13:00 EIWF 191200Z 05008KT 360V090 9999 FEW020 18/13 Q1019 9.2mph 18°C 13°C 20.8°C
19/09/20 12:30 EIWF 191130Z 05009KT 020V090 9999 FEW018 17/12 Q1020 10.4mph 17°C 12°C 19.3°C
19/09/20 12:00 EIWF 191100Z 06010G20KT 020V100 9999 FEW018 SCT040 16/12 Q1020 11.5mph 23.0mph 16°C 12°C 18.3°C
19/09/20 11:30 EIWF 191030Z 06009G20KT 020V090 9999 FEW016 SCT040 15/12 Q1020 10.4mph 23.0mph 15°C 12°C 17.3°C
19/09/20 11:00 EIWF 191000Z 06009G20KT 020V090 9999 FEW016 SCT040 15/12 Q1020 10.4mph 23.0mph 15°C 12°C 17.3°C
19/09/20 10:30 EIWF 190930Z 06010G21KT 020V090 9999 FEW016 SCT040 15/12 Q1020 11.5mph 24.2mph 15°C 12°C 17.3°C
19/09/20 10:00 EIWF 190900Z 05009KT 020V080 9999 FEW016 SCT040 14/12 Q1020 10.4mph 14°C 12°C 16.3°C
19/09/20 09:30 EIWF 190830Z 04010KT 9999 FEW016 SCT040 13/11 Q1020 11.5mph 13°C 11°C 14.8°C
19/09/20 09:00 EIWF 190800Z 03012KT 360V060 9999 SCT040 12/11 Q1020 13.8mph 12°C 11°C 13.8°C
19/09/20 08:30 EIWF 190730Z 04011KT 9999 SCT040 12/10 Q1020 12.7mph 12°C 10°C 13.3°C
19/09/20 08:00 EIWF 190700Z 04011KT 9999 FEW016 SCT040 11/10 Q1020 12.7mph 11°C 10°C 12.3°C
18/09/20 20:30 EIWF 181930Z 04009KT CAVOK 12/09 Q1021 10.4mph 12°C 9°C 12.8°C
18/09/20 20:00 EIWF 181900Z 04010KT 360V080 CAVOK 12/10 Q1021 11.5mph 12°C 10°C 13.3°C
18/09/20 19:30 EIWF 181830Z 05010KT 020V080 CAVOK 13/10 Q1021 11.5mph 13°C 10°C 14.3°C
18/09/20 19:00 EIWF 181800Z 06007KT 030V090 CAVOK 14/09 Q1021 8.1mph 14°C 9°C 14.8°C
18/09/20 18:30 EIWF 181730Z 06010KT CAVOK 14/10 Q1021 11.5mph 14°C 10°C 15.3°C
18/09/20 18:00 EIWF 181700Z 06007G18KT 020V090 CAVOK 15/09 Q1021 8.1mph 20.7mph 15°C 9°C 15.8°C
18/09/20 17:30 EIWF 181630Z 06008KT 030V090 CAVOK 16/09 Q1021 9.2mph 16°C 9°C 16.8°C
18/09/20 17:00 EIWF 181600Z 07011G22KT 030V100 CAVOK 17/09 Q1021 12.7mph 25.3mph 17°C 9°C 17.8°C
18/09/20 16:30 EIWF 181530Z 06009G22KT 020V100 CAVOK 18/10 Q1021 10.4mph 25.3mph 18°C 10°C 19.3°C
18/09/20 16:00 EIWF 181500Z 07008G21KT 030V100 CAVOK 18/10 Q1021 9.2mph 24.2mph 18°C 10°C 19.3°C
18/09/20 15:30 EIWF 181430Z 06009KT 020V090 CAVOK 18/10 Q1022 10.4mph 18°C 10°C 19.3°C
18/09/20 15:00 EIWF 181400Z 06008G20KT CAVOK 18/11 Q1022 9.2mph 23.0mph 18°C 11°C 19.8°C
18/09/20 14:30 EIWF 181330Z 06009G21KT 030V100 CAVOK 18/11 Q1022 10.4mph 24.2mph 18°C 11°C 19.8°C
18/09/20 14:00 EIWF 181300Z 07008G20KT 030V100 9999 FEW040 17/11 Q1022 9.2mph 23.0mph 17°C 11°C 18.8°C
18/09/20 13:30 EIWF 181230Z 08013KT 040V110 9999 FEW020 17/11 Q1023 15.0mph 17°C 11°C 18.8°C
18/09/20 13:00 EIWF 181200Z 06009KT 020V090 9999 FEW020 17/11 Q1023 10.4mph 17°C 11°C 18.8°C
18/09/20 12:30 EIWF 181130Z 07011G22KT 030V100 9999 SCT019 16/12 Q1023 12.7mph 25.3mph 16°C 12°C 18.3°C
18/09/20 12:00 EIWF 181100Z 06008KT 020V110 9999 BKN018 16/12 Q1024 9.2mph 16°C 12°C 18.3°C
18/09/20 11:30 EIWF 181030Z 05009KT 030V100 9999 SCT017 16/12 Q1024 10.4mph 16°C 12°C 18.3°C
18/09/20 11:00 EIWF 181000Z 07008G19KT 030V110 9999 BKN016 15/12 Q1024 9.2mph 21.9mph 15°C 12°C 17.3°C
18/09/20 10:30 EIWF 180930Z 07011G23KT 030V100 9999 SCT016 BKN040 14/12 Q1024 12.7mph 26.5mph 14°C 12°C 16.3°C
18/09/20 10:00 EIWF 180900Z 07009G20KT 040V100 9999 FEW020 14/12 Q1024 10.4mph 23.0mph 14°C 12°C 16.3°C
18/09/20 09:30 EIWF 180830Z 05007KT 020V100 9999 FEW020 14/12 Q1024 8.1mph 14°C 12°C 16.3°C
18/09/20 09:00 EIWF 180800Z 05005KT 020V080 9999 FEW040 13/12 Q1024 5.8mph 13°C 12°C 15.3°C
18/09/20 08:30 EIWF 180730Z 04007KT 010V080 9999 FEW040 12/12 Q1024 8.1mph 12°C 12°C 14.3°C
18/09/20 08:00 EIWF 180700Z 04007KT 010V070 9999 FEW040 12/11 Q1024 8.1mph 12°C 11°C 13.8°C
17/09/20 21:30 EIWF 172030Z 05005KT 020V080 CAVOK 14/12 Q1026 5.8mph 14°C 12°C 16.3°C
17/09/20 21:00 EIWF 172000Z 06005KT CAVOK 14/12 Q1026 5.8mph 14°C 12°C 16.3°C
17/09/20 20:30 EIWF 171930Z 05005KT CAVOK 14/12 Q1026 5.8mph 14°C 12°C 16.3°C
17/09/20 20:00 EIWF 171900Z 06003KT CAVOK 15/12 Q1026 3.5mph 15°C 12°C 17.3°C
17/09/20 19:30 EIWF 171830Z 05004KT CAVOK 16/13 Q1025 4.6mph 16°C 13°C 18.8°C
17/09/20 19:00 EIWF 171800Z 05005KT CAVOK 17/13 Q1025 5.8mph 17°C 13°C 19.8°C
17/09/20 18:30 EIWF 171730Z 06004KT 030V090 CAVOK 18/14 Q1026 4.6mph 18°C 14°C 21.4°C
17/09/20 18:00 EIWF 171700Z 06005KT 030V100 CAVOK 18/13 Q1026 5.8mph 18°C 13°C 20.8°C
17/09/20 17:30 EIWF 171630Z 06006KT 010V100 CAVOK 18/13 Q1026 6.9mph 18°C 13°C 20.8°C
17/09/20 17:00 EIWF 171600Z 06006KT 030V100 CAVOK 19/14 Q1026 6.9mph 19°C 14°C 22.4°C
17/09/20 16:30 EIWF 171530Z 07007KT 040V100 CAVOK 19/14 Q1026 8.1mph 19°C 14°C 22.4°C
17/09/20 16:00 EIWF 171500Z 07007KT 020V100 CAVOK 19/14 Q1026 8.1mph 19°C 14°C 22.4°C
17/09/20 15:30 EIWF 171430Z 08010KT 040V130 9999 FEW025 20/15 Q1027 11.5mph 20°C 15°C 24.0°C
17/09/20 15:00 EIWF 171400Z 09009KT 050V130 9999 FEW025 19/16 Q1027 10.4mph 19°C 16°C 23.6°C
17/09/20 14:30 EIWF 171330Z 10009KT 060V130 9999 FEW020 19/15 Q1027 10.4mph 19°C 15°C 23.0°C
17/09/20 14:00 EIWF 171300Z 09008KT 040V120 9999 FEW015 19/15 Q1027 9.2mph 19°C 15°C 23.0°C
17/09/20 13:30 EIWF 171230Z 09006KT 030V140 9999 SCT012 18/15 Q1028 6.9mph 18°C 15°C 22.0°C
17/09/20 13:00 EIWF 171200Z 09010KT 070V130 9999 BKN010 17/14 Q1028 11.5mph 17°C 14°C 20.4°C
17/09/20 12:30 EIWF 171130Z 11008KT 080V150 9999 BKN010 17/15 Q1028 9.2mph 17°C 15°C 21.0°C
17/09/20 12:00 EIWF 171100Z 09011KT 060V120 9999 SCT009 BKN012 17/15 Q1028 12.7mph 17°C 15°C 21.0°C
17/09/20 11:30 EIWF 171030Z 09009KT 070V130 9999 BKN011 16/14 Q1028 10.4mph 16°C 14°C 19.4°C
17/09/20 11:00 EIWF 171000Z 09009KT 050V120 9999 BKN009 BKN012 16/15 Q1028 10.4mph 16°C 15°C 20.0°C
17/09/20 10:30 EIWF 170930Z 08008KT 040V120 9999 BKN008 17/15 Q1028 9.2mph 17°C 15°C 21.0°C
17/09/20 10:00 EIWF 170900Z 07007KT 040V100 9999 BKN007 16/15 Q1028 8.1mph 16°C 15°C 20.0°C
17/09/20 09:30 EIWF 170830Z 07005KT 040V110 8000 BKN007 16/15 Q1028 5.8mph 16°C 15°C 20.0°C
17/09/20 09:00 EIWF 170800Z 06004KT 030V090 6000 BKN006 15/14 Q1028 4.6mph 15°C 14°C 18.4°C
17/09/20 08:30 EIWF 170730Z 05004KT 5000 BR BKN006 BKN009 14/14 Q1028 BR 4.6mph 14°C 14°C 17.4°C
17/09/20 08:00 EIWF 170700Z 05005KT 4000 BR BKN007 14/14 Q1028 BR 5.8mph 14°C 14°C 17.4°C
16/09/20 20:30 EIWF 161930Z VRB01KT 6000 VCMIFG FEW001 12/12 Q1027 VCMIFG 1.2mph 12°C 12°C 14.3°C
16/09/20 20:00 EIWF 161900Z 13002KT 0600 FG SCT001 14/13 Q1026 FG 2.3mph 14°C 13°C 16.8°C
16/09/20 19:30 EIWF 161830Z 18004KT 0500 FG SCT001 14/14 Q1026 FG 4.6mph 14°C 14°C 17.4°C
16/09/20 19:00 EIWF 161800Z 20003KT 3500 BR NSC 16/15 Q1026 BR 3.5mph 16°C 15°C 20.0°C
16/09/20 18:30 EIWF 161730Z 21003KT 6000 NSC 17/15 Q1026 3.5mph 17°C 15°C 21.0°C
16/09/20 18:00 EIWF 161700Z 22005KT 180V250 6000 NSC 17/15 Q1026 5.8mph 17°C 15°C 21.0°C
16/09/20 17:30 EIWF 161630Z 24005KT 190V280 7000 FEW028 18/16 Q1025 5.8mph 18°C 16°C 22.6°C
16/09/20 17:00 EIWF 161600Z 21006KT 190V250 7000 FEW030 20/17 Q1025 6.9mph 20°C 17°C 25.3°C